Seabourn Legend — C6FR6 — position and weather

sailwx.info

Track history (hours):
 
Tides and Currents Weather Stations Pressure Air Temp Water Temp Dewpoint Dewpoint Depression Visibility Wind Speed Wind Dir Waves Ship Positions

Seabourn Legend

Operator: Cunard Seabourn

Last reported at 2017-Apr-30 14:30 UTC. Time now 2017-Apr-30 14:46 UTC.
Position N 39°33' E 002°38'.

Length 135 m; draft 5.5 m.

Type: Passenger vessel. MMSI: 311085000.

Date/timePositionNaut miles runAvg speedWind from/ knotsBaromVisibWave heightAir tempDewpointWater temp
2017-Apr-30 14:30N 39°33' E 002°38'0 0.0
2017-Apr-30 13:30N 39°33' E 002°38'0 0.0
2017-Apr-30 12:59N 39°33' E 002°38'0 0.0
2017-Apr-30 12:29N 39°33' E 002°38'0 0.0
2017-Apr-30 11:59N 39°33' E 002°38'0 0.0
2017-Apr-30 11:26N 39°33' E 002°38'0 0.0
2017-Apr-30 10:59N 39°33' E 002°38'0 0.0
2017-Apr-30 10:28N 39°33' E 002°38'0 0.0
2017-Apr-30 09:58N 39°33' E 002°38'0 0.0
2017-Apr-30 09:28N 39°33' E 002°38'0 0.0
2017-Apr-30 08:58N 39°33' E 002°38'0 0.0
2017-Apr-30 08:28N 39°33' E 002°38'0 0.0
2017-Apr-30 08:00N 39°33' E 002°38'0 0.0
2017-Apr-30 07:30N 39°33' E 002°38'0 0.0
2017-Apr-30 07:00N 39°33' E 002°38'0 0.0
2017-Apr-30 06:30N 39°33' E 002°38'0 0.0
2017-Apr-30 05:59N 39°33' E 002°38'0 0.0
2017-Apr-30 05:30N 39°33' E 002°38'1 1.7
2017-Apr-30 05:00N 39°33' E 002°39'4 7.4
2017-Apr-30 04:30N 39°29' E 002°36'4 8.9
2017-Apr-30 04:00N 39°26' E 002°33'4 8.8
2017-Apr-30 03:30N 39°23' E 002°29'4 8.9
2017-Apr-30 03:00N 39°19' E 002°25'4 8.9
2017-Apr-30 02:30N 39°16' E 002°22'611.8
2017-Apr-30 02:00N 39°11' E 002°17'612.0
2017-Apr-30 01:30N 39°06' E 002°12'612.1
2017-Apr-30 00:59N 39°01' E 002°07'611.6
2017-Apr-30 00:29N 38°57' E 002°02'713.5
2017-Apr-30 00:00N 38°52' E 001°57'15913.9
2017-Apr-29 12:37N 37°15' W 000°42'  
2017-Apr-26 19:14N 36°05' W 005°07'2 6.6
2017-Apr-26 18:56N 36°05' W 005°09'3 6.6
2017-Apr-26 18:30N 36°06' W 005°13'4 7.9
2017-Apr-26 18:00N 36°06' W 005°18'4 8.1
2017-Apr-26 17:30N 36°08' W 005°23'1 2.7
2017-Apr-26 17:01N 36°09' W 005°22'0 0.0
2017-Apr-26 16:30N 36°09' W 005°22'0 0.0
2017-Apr-26 16:00N 36°09' W 005°22'0 0.0
2017-Apr-26 15:30N 36°09' W 005°22'0 0.0
2017-Apr-26 15:00N 36°09' W 005°22'0 0.0
2017-Apr-26 14:30N 36°09' W 005°22'0 0.0
2017-Apr-26 13:29N 36°09' W 005°22'0 0.0
2017-Apr-26 12:59N 36°09' W 005°22'0 0.0
2017-Apr-26 12:29N 36°09' W 005°22'0 0.0
2017-Apr-26 11:59N 36°09' W 005°22'0 0.0
2017-Apr-26 11:28N 36°09' W 005°22'0 0.3
2017-Apr-26 11:00N 36°09' W 005°22'2 5.0
2017-Apr-26 10:30N 36°06' W 005°22'4 8.4
2017-Apr-26 10:01N 36°02' W 005°22'612.8
2017-Apr-26 09:30N 35°58' W 005°28'4 7.7
2017-Apr-26 09:00N 35°57' W 005°32'3 6.5
2017-Apr-26 08:30N 35°56' W 005°36'3 6.8
2017-Apr-26 08:00N 35°56' W 005°40'4 7.1
2017-Apr-26 07:29N 35°55' W 005°45'119 3.2
2017-Apr-24 18:42N 36°52' W 007°55'211.6
2017-Apr-24 18:30N 36°53' W 007°58'611.5
2017-Apr-24 18:00N 36°55' W 008°04'611.6
2017-Apr-24 17:30N 36°57' W 008°11'611.9
2017-Apr-24 17:00N 36°60' W 008°18'611.7
2017-Apr-24 16:30N 37°02' W 008°25'611.5
2017-Apr-24 16:00N 37°04' W 008°32'3 6.2
2017-Apr-24 15:30N 37°07' W 008°32'0 0.0
2017-Apr-24 15:00N 37°07' W 008°32'0 0.0
2017-Apr-24 14:30N 37°07' W 008°32'0 0.0
2017-Apr-24 13:30N 37°07' W 008°32'0 0.0
2017-Apr-24 13:00N 37°07' W 008°32'0 0.0
2017-Apr-24 12:30N 37°07' W 008°32'0 0.0
2017-Apr-24 11:56N 37°07' W 008°32'0 0.0
2017-Apr-24 11:26N 37°07' W 008°32'0 0.0
2017-Apr-24 10:56N 37°07' W 008°32'0 0.0
2017-Apr-24 10:29N 37°07' W 008°32'0 0.0
2017-Apr-24 09:59N 37°07' W 008°32'0 0.0
2017-Apr-24 09:28N 37°07' W 008°32'0 0.0
2017-Apr-24 08:58N 37°07' W 008°32'0 0.0
2017-Apr-24 08:28N 37°07' W 008°32'0 0.0
2017-Apr-24 07:55N 37°07' W 008°32'0 0.1
2017-Apr-24 07:30N 37°07' W 008°32'0 0.9
2017-Apr-24 07:00N 37°07' W 008°31'4 7.9
2017-Apr-24 06:30N 37°03' W 008°34'3 6.2
2017-Apr-24 06:00N 37°02' W 008°37'4 7.3
2017-Apr-24 05:30N 36°59' W 008°40'4 7.3
2017-Apr-24 05:00N 36°57' W 008°44'4 7.0
2017-Apr-24 04:30N 36°55' W 008°47'4 7.0
2017-Apr-24 04:00N 36°53' W 008°51'4 7.9
2017-Apr-24 03:30N 36°51' W 008°55'510.2
2017-Apr-24 03:00N 36°50' W 009°01'510.8
2017-Apr-24 02:30N 36°53' W 009°07'510.9
2017-Apr-24 02:00N 36°56' W 009°12'611.1
2017-Apr-24 01:29N 37°02' W 009°13'511.2
2017-Apr-24 01:00N 37°07' W 009°14'611.1
2017-Apr-24 00:30N 37°13' W 009°15'611.5
2017-Apr-24 00:00N 37°18' W 009°16'611.4
2017-Apr-23 23:30N 37°24' W 009°16'611.7
2017-Apr-23 23:00N 37°30' W 009°16'611.7
2017-Apr-23 22:30N 37°36' W 009°17'611.8
2017-Apr-23 22:00N 37°42' W 009°17'611.6
2017-Apr-23 21:30N 37°48' W 009°18'611.8
2017-Apr-23 21:00N 37°53' W 009°19'612.2
2017-Apr-23 20:30N 37°59' W 009°19'612.5
2017-Apr-23 20:00N 38°06' W 009°20'612.2
2017-Apr-23 19:30N 38°12' W 009°20'612.0
2017-Apr-23 19:00N 38°18' W 009°21'612.0
2017-Apr-23 18:30N 38°24' W 009°22'611.3
2017-Apr-23 18:00N 38°29' W 009°22'611.8
2017-Apr-23 17:30N 38°35' W 009°23'612.3
2017-Apr-23 17:00N 38°40' W 009°18'5 9.9
2017-Apr-23 16:30N 38°41' W 009°12'4 8.0
2017-Apr-23 16:00N 38°43' W 009°07'0 0.0
2017-Apr-23 15:30N 38°43' W 009°07'0 0.0
2017-Apr-23 15:00N 38°43' W 009°07'0 0.0
2017-Apr-23 13:56N 38°43' W 009°07'0 0.0
2017-Apr-23 13:29N 38°43' W 009°07'0 0.0
2017-Apr-23 12:59N 38°43' W 009°07'0 0.0
2017-Apr-23 12:29N 38°43' W 009°07'0 0.0
2017-Apr-23 11:58N 38°43' W 009°07'0 0.0
2017-Apr-23 11:28N 38°43' W 009°07'0 0.0
2017-Apr-23 10:58N 38°43' W 009°07'0 0.0
2017-Apr-23 10:28N 38°43' W 009°07'0 0.0
2017-Apr-23 10:01N 38°43' W 009°07'0 0.0
2017-Apr-23 09:27N 38°43' W 009°07'0 0.0
2017-Apr-23 09:00N 38°43' W 009°07'0 0.0
2017-Apr-23 08:30N 38°43' W 009°07'0 0.0
2017-Apr-23 08:00N 38°43' W 009°07'0 0.0
2017-Apr-23 07:29N 38°43' W 009°07'0 0.0
2017-Apr-23 06:59N 38°43' W 009°07'0 0.0
2017-Apr-23 06:29N 38°43' W 009°07'0 0.0
2017-Apr-23 05:59N 38°43' W 009°07'0 0.0
2017-Apr-23 05:29N 38°43' W 009°07'0 0.4
2017-Apr-23 05:00N 38°43' W 009°07'3 6.3
2017-Apr-23 04:30N 38°41' W 009°11'2 4.0
2017-Apr-23 03:59N 38°41' W 009°14'3 5.6
2017-Apr-23 03:30N 38°41' W 009°17'3 5.4
2017-Apr-23 03:00N 38°39' W 009°20'3 5.7
2017-Apr-23 02:30N 38°37' W 009°22'3 6.7
2017-Apr-23 02:00N 38°36' W 009°26'4 7.1
2017-Apr-23 01:30N 38°36' W 009°31'3 6.1
2017-Apr-23 01:00N 38°36' W 009°35'3 6.2
2017-Apr-23 00:30N 38°36' W 009°39'3 6.5
2017-Apr-23 00:00N 38°35' W 009°43'3 6.4
2017-Apr-22 23:30N 38°35' W 009°47'3 6.4
2017-Apr-22 23:00N 38°35' W 009°51'3 6.3
2017-Apr-22 22:30N 38°35' W 009°55'3 6.2
2017-Apr-22 22:00N 38°34' W 009°59'3 6.2
2017-Apr-22 21:30N 38°34' W 010°03'3 6.4
2017-Apr-22 21:00N 38°33' W 010°07'3 6.5
2017-Apr-22 20:29N 38°33' W 010°11'3 6.4
2017-Apr-22 20:00N 38°32' W 010°15'3 6.6
2017-Apr-22 19:30N 38°32' W 010°19'3 6.5
2017-Apr-22 19:00N 38°31' W 010°23'7 6.3
2017-Apr-22 17:55N 38°30' W 010°32'  
Track history (hours):
 
Tides and Currents Weather Stations Pressure Air Temp Water Temp Dewpoint Dewpoint Depression Visibility Wind Speed Wind Dir Waves Ship Positions

Seabourn Legend

Operator: Cunard Seabourn

Last reported at 2017-Apr-30 14:30 UTC. Time now 2017-Apr-30 14:46 UTC.
Position N 39°33' E 002°38'.

Length 135 m; draft 5.5 m.

Type: Passenger vessel. MMSI: 311085000.

Date/timePositionNaut miles runAvg speedWind from/ knotsBaromVisibWave heightAir tempDewpointWater temp
2017-Apr-30 14:30N 39°33' E 002°38'0 0.0
2017-Apr-30 13:30N 39°33' E 002°38'0 0.0
2017-Apr-30 12:59N 39°33' E 002°38'0 0.0
2017-Apr-30 12:29N 39°33' E 002°38'0 0.0
2017-Apr-30 11:59N 39°33' E 002°38'0 0.0
2017-Apr-30 11:26N 39°33' E 002°38'0 0.0
2017-Apr-30 10:59N 39°33' E 002°38'0 0.0
2017-Apr-30 10:28N 39°33' E 002°38'0 0.0
2017-Apr-30 09:58N 39°33' E 002°38'0 0.0
2017-Apr-30 09:28N 39°33' E 002°38'0 0.0
2017-Apr-30 08:58N 39°33' E 002°38'0 0.0
2017-Apr-30 08:28N 39°33' E 002°38'0 0.0
2017-Apr-30 08:00N 39°33' E 002°38'0 0.0
2017-Apr-30 07:30N 39°33' E 002°38'0 0.0
2017-Apr-30 07:00N 39°33' E 002°38'0 0.0
2017-Apr-30 06:30N 39°33' E 002°38'0 0.0
2017-Apr-30 05:59N 39°33' E 002°38'0 0.0
2017-Apr-30 05:30N 39°33' E 002°38'1 1.7
2017-Apr-30 05:00N 39°33' E 002°39'4 7.4
2017-Apr-30 04:30N 39°29' E 002°36'4 8.9
2017-Apr-30 04:00N 39°26' E 002°33'4 8.8
2017-Apr-30 03:30N 39°23' E 002°29'4 8.9
2017-Apr-30 03:00N 39°19' E 002°25'4 8.9
2017-Apr-30 02:30N 39°16' E 002°22'611.8
2017-Apr-30 02:00N 39°11' E 002°17'612.0
2017-Apr-30 01:30N 39°06' E 002°12'612.1
2017-Apr-30 00:59N 39°01' E 002°07'611.6
2017-Apr-30 00:29N 38°57' E 002°02'713.5
2017-Apr-30 00:00N 38°52' E 001°57'15913.9
2017-Apr-29 12:37N 37°15' W 000°42'  
2017-Apr-26 19:14N 36°05' W 005°07'2 6.6
2017-Apr-26 18:56N 36°05' W 005°09'3 6.6
2017-Apr-26 18:30N 36°06' W 005°13'4 7.9
2017-Apr-26 18:00N 36°06' W 005°18'4 8.1
2017-Apr-26 17:30N 36°08' W 005°23'1 2.7
2017-Apr-26 17:01N 36°09' W 005°22'0 0.0
2017-Apr-26 16:30N 36°09' W 005°22'0 0.0
2017-Apr-26 16:00N 36°09' W 005°22'0 0.0
2017-Apr-26 15:30N 36°09' W 005°22'0 0.0
2017-Apr-26 15:00N 36°09' W 005°22'0 0.0
2017-Apr-26 14:30N 36°09' W 005°22'0 0.0
2017-Apr-26 13:29N 36°09' W 005°22'0 0.0
2017-Apr-26 12:59N 36°09' W 005°22'0 0.0
2017-Apr-26 12:29N 36°09' W 005°22'0 0.0
2017-Apr-26 11:59N 36°09' W 005°22'0 0.0
2017-Apr-26 11:28N 36°09' W 005°22'0 0.3
2017-Apr-26 11:00N 36°09' W 005°22'2 5.0
2017-Apr-26 10:30N 36°06' W 005°22'4 8.4
2017-Apr-26 10:01N 36°02' W 005°22'612.8
2017-Apr-26 09:30N 35°58' W 005°28'4 7.7
2017-Apr-26 09:00N 35°57' W 005°32'3 6.5
2017-Apr-26 08:30N 35°56' W 005°36'3 6.8
2017-Apr-26 08:00N 35°56' W 005°40'4 7.1
2017-Apr-26 07:29N 35°55' W 005°45'119 3.2
2017-Apr-24 18:42N 36°52' W 007°55'211.6
2017-Apr-24 18:30N 36°53' W 007°58'611.5
2017-Apr-24 18:00N 36°55' W 008°04'611.6
2017-Apr-24 17:30N 36°57' W 008°11'611.9
2017-Apr-24 17:00N 36°60' W 008°18'611.7
2017-Apr-24 16:30N 37°02' W 008°25'611.5
2017-Apr-24 16:00N 37°04' W 008°32'3 6.2
2017-Apr-24 15:30N 37°07' W 008°32'0 0.0
2017-Apr-24 15:00N 37°07' W 008°32'0 0.0
2017-Apr-24 14:30N 37°07' W 008°32'0 0.0
2017-Apr-24 13:30N 37°07' W 008°32'0 0.0
2017-Apr-24 13:00N 37°07' W 008°32'0 0.0
2017-Apr-24 12:30N 37°07' W 008°32'0 0.0
2017-Apr-24 11:56N 37°07' W 008°32'0 0.0
2017-Apr-24 11:26N 37°07' W 008°32'0 0.0
2017-Apr-24 10:56N 37°07' W 008°32'0 0.0
2017-Apr-24 10:29N 37°07' W 008°32'0 0.0
2017-Apr-24 09:59N 37°07' W 008°32'0 0.0
2017-Apr-24 09:28N 37°07' W 008°32'0 0.0
2017-Apr-24 08:58N 37°07' W 008°32'0 0.0
2017-Apr-24 08:28N 37°07' W 008°32'0 0.0
2017-Apr-24 07:55N 37°07' W 008°32'0 0.1
2017-Apr-24 07:30N 37°07' W 008°32'0 0.9
2017-Apr-24 07:00N 37°07' W 008°31'4 7.9
2017-Apr-24 06:30N 37°03' W 008°34'3 6.2
2017-Apr-24 06:00N 37°02' W 008°37'4 7.3
2017-Apr-24 05:30N 36°59' W 008°40'4 7.3
2017-Apr-24 05:00N 36°57' W 008°44'4 7.0
2017-Apr-24 04:30N 36°55' W 008°47'4 7.0
2017-Apr-24 04:00N 36°53' W 008°51'4 7.9
2017-Apr-24 03:30N 36°51' W 008°55'510.2
2017-Apr-24 03:00N 36°50' W 009°01'510.8
2017-Apr-24 02:30N 36°53' W 009°07'510.9
2017-Apr-24 02:00N 36°56' W 009°12'611.1
2017-Apr-24 01:29N 37°02' W 009°13'511.2
2017-Apr-24 01:00N 37°07' W 009°14'611.1
2017-Apr-24 00:30N 37°13' W 009°15'611.5
2017-Apr-24 00:00N 37°18' W 009°16'611.4
2017-Apr-23 23:30N 37°24' W 009°16'611.7
2017-Apr-23 23:00N 37°30' W 009°16'611.7
2017-Apr-23 22:30N 37°36' W 009°17'611.8
2017-Apr-23 22:00N 37°42' W 009°17'611.6
2017-Apr-23 21:30N 37°48' W 009°18'611.8
2017-Apr-23 21:00N 37°53' W 009°19'612.2
2017-Apr-23 20:30N 37°59' W 009°19'612.5
2017-Apr-23 20:00N 38°06' W 009°20'612.2
2017-Apr-23 19:30N 38°12' W 009°20'612.0
2017-Apr-23 19:00N 38°18' W 009°21'612.0
2017-Apr-23 18:30N 38°24' W 009°22'611.3
2017-Apr-23 18:00N 38°29' W 009°22'611.8
2017-Apr-23 17:30N 38°35' W 009°23'612.3
2017-Apr-23 17:00N 38°40' W 009°18'5 9.9
2017-Apr-23 16:30N 38°41' W 009°12'4 8.0
2017-Apr-23 16:00N 38°43' W 009°07'0 0.0
2017-Apr-23 15:30N 38°43' W 009°07'0 0.0
2017-Apr-23 15:00N 38°43' W 009°07'0 0.0
2017-Apr-23 13:56N 38°43' W 009°07'0 0.0
2017-Apr-23 13:29N 38°43' W 009°07'0 0.0
2017-Apr-23 12:59N 38°43' W 009°07'0 0.0
2017-Apr-23 12:29N 38°43' W 009°07'0 0.0
2017-Apr-23 11:58N 38°43' W 009°07'0 0.0
2017-Apr-23 11:28N 38°43' W 009°07'0 0.0
2017-Apr-23 10:58N 38°43' W 009°07'0 0.0
2017-Apr-23 10:28N 38°43' W 009°07'0 0.0
2017-Apr-23 10:01N 38°43' W 009°07'0 0.0
2017-Apr-23 09:27N 38°43' W 009°07'0 0.0
2017-Apr-23 09:00N 38°43' W 009°07'0 0.0
2017-Apr-23 08:30N 38°43' W 009°07'0 0.0
2017-Apr-23 08:00N 38°43' W 009°07'0 0.0
2017-Apr-23 07:29N 38°43' W 009°07'0 0.0
2017-Apr-23 06:59N 38°43' W 009°07'0 0.0
2017-Apr-23 06:29N 38°43' W 009°07'0 0.0
2017-Apr-23 05:59N 38°43' W 009°07'0 0.0
2017-Apr-23 05:29N 38°43' W 009°07'0 0.4
2017-Apr-23 05:00N 38°43' W 009°07'3 6.3
2017-Apr-23 04:30N 38°41' W 009°11'2 4.0
2017-Apr-23 03:59N 38°41' W 009°14'3 5.6
2017-Apr-23 03:30N 38°41' W 009°17'3 5.4
2017-Apr-23 03:00N 38°39' W 009°20'3 5.7
2017-Apr-23 02:30N 38°37' W 009°22'3 6.7
2017-Apr-23 02:00N 38°36' W 009°26'4 7.1
2017-Apr-23 01:30N 38°36' W 009°31'3 6.1
2017-Apr-23 01:00N 38°36' W 009°35'3 6.2
2017-Apr-23 00:30N 38°36' W 009°39'3 6.5
2017-Apr-23 00:00N 38°35' W 009°43'3 6.4
2017-Apr-22 23:30N 38°35' W 009°47'3 6.4
2017-Apr-22 23:00N 38°35' W 009°51'3 6.3
2017-Apr-22 22:30N 38°35' W 009°55'3 6.2
2017-Apr-22 22:00N 38°34' W 009°59'3 6.2
2017-Apr-22 21:30N 38°34' W 010°03'3 6.4
2017-Apr-22 21:00N 38°33' W 010°07'3 6.5
2017-Apr-22 20:29N 38°33' W 010°11'3 6.4
2017-Apr-22 20:00N 38°32' W 010°15'3 6.6
2017-Apr-22 19:30N 38°32' W 010°19'3 6.5
2017-Apr-22 19:00N 38°31' W 010°23'7 6.3
2017-Apr-22 17:55N 38°30' W 010°32'  

Dump ship's entire track history